sensor_id;sensor_type;location;lat;lon;timestamp;P1;durP1;ratioP1;P2;durP2;ratioP2
32393;SDS011;18853;45.426;9.206;2023-06-14T00:01:45;22.02;;;19.65;;
32393;SDS011;18853;45.426;9.206;2023-06-14T00:04:11;22.88;;;20.40;;
32393;SDS011;18853;45.426;9.206;2023-06-14T00:06:38;20.38;;;17.75;;
32393;SDS011;18853;45.426;9.206;2023-06-14T00:09:04;20.88;;;17.95;;
32393;SDS011;18853;45.426;9.206;2023-06-14T00:11:30;21.15;;;18.95;;
32393;SDS011;18853;45.426;9.206;2023-06-14T00:13:56;22.65;;;19.58;;
32393;SDS011;18853;45.426;9.206;2023-06-14T00:16:22;18.67;;;16.17;;
32393;SDS011;18853;45.426;9.206;2023-06-14T00:18:49;18.35;;;16.45;;
32393;SDS011;18853;45.426;9.206;2023-06-14T00:21:16;19.25;;;17.23;;
32393;SDS011;18853;45.426;9.206;2023-06-14T00:23:42;17.75;;;14.88;;
32393;SDS011;18853;45.426;9.206;2023-06-14T00:26:08;16.95;;;14.75;;
32393;SDS011;18853;45.426;9.206;2023-06-14T00:28:34;16.75;;;15.02;;
32393;SDS011;18853;45.426;9.206;2023-06-14T00:30:59;16.27;;;13.63;;
32393;SDS011;18853;45.426;9.206;2023-06-14T00:33:25;19.77;;;16.52;;
32393;SDS011;18853;45.426;9.206;2023-06-14T00:35:51;22.75;;;17.50;;
32393;SDS011;18853;45.426;9.206;2023-06-14T00:38:19;16.60;;;13.88;;
32393;SDS011;18853;45.426;9.206;2023-06-14T00:40:45;13.48;;;10.98;;
32393;SDS011;18853;45.426;9.206;2023-06-14T00:43:11;17.00;;;11.90;;
32393;SDS011;18853;45.426;9.206;2023-06-14T00:45:36;19.05;;;14.73;;
32393;SDS011;18853;45.426;9.206;2023-06-14T00:48:02;20.95;;;16.98;;
32393;SDS011;18853;45.426;9.206;2023-06-14T00:50:31;20.92;;;17.42;;
32393;SDS011;18853;45.426;9.206;2023-06-14T00:52:58;19.08;;;16.60;;
32393;SDS011;18853;45.426;9.206;2023-06-14T00:55:25;22.48;;;18.00;;
32393;SDS011;18853;45.426;9.206;2023-06-14T00:57:52;22.85;;;18.67;;
32393;SDS011;18853;45.426;9.206;2023-06-14T01:00:18;22.90;;;17.95;;
32393;SDS011;18853;45.426;9.206;2023-06-14T01:02:44;24.40;;;19.08;;
32393;SDS011;18853;45.426;9.206;2023-06-14T01:05:09;21.40;;;19.10;;
32393;SDS011;18853;45.426;9.206;2023-06-14T01:10:46;22.55;;;18.05;;
32393;SDS011;18853;45.426;9.206;2023-06-14T01:13:28;20.20;;;17.85;;
32393;SDS011;18853;45.426;9.206;2023-06-14T01:15:58;19.67;;;17.38;;
32393;SDS011;18853;45.426;9.206;2023-06-14T01:18:24;20.02;;;17.15;;
32393;SDS011;18853;45.426;9.206;2023-06-14T01:20:51;20.05;;;17.80;;
32393;SDS011;18853;45.426;9.206;2023-06-14T01:23:20;17.98;;;16.08;;
32393;SDS011;18853;45.426;9.206;2023-06-14T01:25:47;19.60;;;16.67;;
32393;SDS011;18853;45.426;9.206;2023-06-14T01:28:17;18.58;;;15.90;;
32393;SDS011;18853;45.426;9.206;2023-06-14T01:30:46;16.83;;;14.98;;
32393;SDS011;18853;45.426;9.206;2023-06-14T01:33:21;18.02;;;14.85;;
32393;SDS011;18853;45.426;9.206;2023-06-14T01:35:48;16.80;;;14.10;;
32393;SDS011;18853;45.426;9.206;2023-06-14T01:38:15;15.43;;;13.77;;
32393;SDS011;18853;45.426;9.206;2023-06-14T01:40:44;16.88;;;12.93;;
32393;SDS011;18853;45.426;9.206;2023-06-14T01:43:11;14.40;;;12.88;;
32393;SDS011;18853;45.426;9.206;2023-06-14T01:45:38;15.90;;;14.05;;
32393;SDS011;18853;45.426;9.206;2023-06-14T01:48:09;15.32;;;11.85;;
32393;SDS011;18853;45.426;9.206;2023-06-14T01:50:35;16.27;;;14.00;;
32393;SDS011;18853;45.426;9.206;2023-06-14T01:53:01;15.75;;;13.23;;
32393;SDS011;18853;45.426;9.206;2023-06-14T01:55:26;17.70;;;14.10;;
32393;SDS011;18853;45.426;9.206;2023-06-14T01:57:52;17.55;;;14.27;;
32393;SDS011;18853;45.426;9.206;2023-06-14T02:00:19;14.45;;;12.40;;
32393;SDS011;18853;45.426;9.206;2023-06-14T02:02:46;16.63;;;12.88;;
32393;SDS011;18853;45.426;9.206;2023-06-14T02:05:12;13.25;;;10.80;;
32393;SDS011;18853;45.426;9.206;2023-06-14T02:07:37;11.40;;;10.07;;
32393;SDS011;18853;45.426;9.206;2023-06-14T02:10:04;14.20;;;10.95;;
32393;SDS011;18853;45.426;9.206;2023-06-14T02:12:30;12.60;;;8.40;;
32393;SDS011;18853;45.426;9.206;2023-06-14T02:14:56;10.80;;;7.70;;
32393;SDS011;18853;45.426;9.206;2023-06-14T02:17:23;11.82;;;7.25;;
32393;SDS011;18853;45.426;9.206;2023-06-14T02:19:49;7.93;;;6.32;;
32393;SDS011;18853;45.426;9.206;2023-06-14T02:22:15;8.05;;;6.13;;
32393;SDS011;18853;45.426;9.206;2023-06-14T02:24:41;7.72;;;5.43;;
32393;SDS011;18853;45.426;9.206;2023-06-14T02:27:07;6.53;;;5.22;;
32393;SDS011;18853;45.426;9.206;2023-06-14T02:29:36;6.70;;;4.88;;
32393;SDS011;18853;45.426;9.206;2023-06-14T02:32:02;7.95;;;5.88;;
32393;SDS011;18853;45.426;9.206;2023-06-14T02:34:29;8.68;;;5.28;;
32393;SDS011;18853;45.426;9.206;2023-06-14T02:36:54;7.15;;;5.20;;
32393;SDS011;18853;45.426;9.206;2023-06-14T02:39:20;6.80;;;5.00;;
32393;SDS011;18853;45.426;9.206;2023-06-14T02:41:48;5.47;;;4.70;;
32393;SDS011;18853;45.426;9.206;2023-06-14T02:44:15;5.70;;;4.38;;
32393;SDS011;18853;45.426;9.206;2023-06-14T02:46:42;6.95;;;5.00;;
32393;SDS011;18853;45.426;9.206;2023-06-14T02:49:09;5.28;;;4.50;;
32393;SDS011;18853;45.426;9.206;2023-06-14T02:51:35;4.75;;;3.83;;
32393;SDS011;18853;45.426;9.206;2023-06-14T02:54:00;6.93;;;4.10;;
32393;SDS011;18853;45.426;9.206;2023-06-14T02:56:26;5.72;;;4.20;;
32393;SDS011;18853;45.426;9.206;2023-06-14T02:58:53;5.07;;;3.85;;
32393;SDS011;18853;45.426;9.206;2023-06-14T03:01:18;5.20;;;3.88;;
32393;SDS011;18853;45.426;9.206;2023-06-14T03:03:45;4.88;;;3.88;;
32393;SDS011;18853;45.426;9.206;2023-06-14T03:06:11;5.72;;;4.00;;
32393;SDS011;18853;45.426;9.206;2023-06-14T03:08:39;9.48;;;4.30;;
32393;SDS011;18853;45.426;9.206;2023-06-14T03:11:06;5.93;;;4.22;;
32393;SDS011;18853;45.426;9.206;2023-06-14T03:13:33;6.97;;;4.45;;
32393;SDS011;18853;45.426;9.206;2023-06-14T03:16:00;5.57;;;4.22;;
32393;SDS011;18853;45.426;9.206;2023-06-14T03:18:29;7.18;;;4.40;;
32393;SDS011;18853;45.426;9.206;2023-06-14T03:20:56;8.45;;;5.30;;
32393;SDS011;18853;45.426;9.206;2023-06-14T03:23:23;7.97;;;5.00;;
32393;SDS011;18853;45.426;9.206;2023-06-14T03:25:50;5.90;;;4.97;;
32393;SDS011;18853;45.426;9.206;2023-06-14T03:28:16;7.00;;;4.80;;
32393;SDS011;18853;45.426;9.206;2023-06-14T03:30:42;6.72;;;5.40;;
32393;SDS011;18853;45.426;9.206;2023-06-14T03:33:08;6.07;;;4.85;;
32393;SDS011;18853;45.426;9.206;2023-06-14T03:35:34;6.47;;;5.32;;
32393;SDS011;18853;45.426;9.206;2023-06-14T03:38:00;8.93;;;5.15;;
32393;SDS011;18853;45.426;9.206;2023-06-14T03:40:27;7.43;;;5.32;;
32393;SDS011;18853;45.426;9.206;2023-06-14T03:42:55;7.25;;;5.43;;
32393;SDS011;18853;45.426;9.206;2023-06-14T03:45:21;7.80;;;5.47;;
32393;SDS011;18853;45.426;9.206;2023-06-14T03:47:47;7.95;;;5.28;;
32393;SDS011;18853;45.426;9.206;2023-06-14T03:50:13;6.45;;;5.25;;
32393;SDS011;18853;45.426;9.206;2023-06-14T03:52:38;7.75;;;5.68;;
32393;SDS011;18853;45.426;9.206;2023-06-14T03:55:05;7.63;;;5.35;;
32393;SDS011;18853;45.426;9.206;2023-06-14T03:57:31;6.57;;;4.93;;
32393;SDS011;18853;45.426;9.206;2023-06-14T03:59:56;6.07;;;4.45;;
32393;SDS011;18853;45.426;9.206;2023-06-14T04:02:22;7.43;;;5.15;;
32393;SDS011;18853;45.426;9.206;2023-06-14T04:04:48;8.20;;;4.78;;
32393;SDS011;18853;45.426;9.206;2023-06-14T04:07:15;8.05;;;5.32;;
32393;SDS011;18853;45.426;9.206;2023-06-14T04:09:44;7.97;;;5.10;;
32393;SDS011;18853;45.426;9.206;2023-06-14T04:12:10;8.90;;;5.30;;
32393;SDS011;18853;45.426;9.206;2023-06-14T04:14:39;6.47;;;4.78;;
32393;SDS011;18853;45.426;9.206;2023-06-14T04:17:06;6.72;;;4.88;;
32393;SDS011;18853;45.426;9.206;2023-06-14T04:19:32;6.95;;;5.10;;
32393;SDS011;18853;45.426;9.206;2023-06-14T04:21:58;7.95;;;4.75;;
32393;SDS011;18853;45.426;9.206;2023-06-14T04:24:26;6.15;;;4.70;;
32393;SDS011;18853;45.426;9.206;2023-06-14T04:26:56;6.40;;;4.60;;
32393;SDS011;18853;45.426;9.206;2023-06-14T04:29:26;7.13;;;4.65;;
32393;SDS011;18853;45.426;9.206;2023-06-14T04:31:55;5.53;;;4.50;;
32393;SDS011;18853;45.426;9.206;2023-06-14T04:34:25;5.90;;;4.25;;
32393;SDS011;18853;45.426;9.206;2023-06-14T04:36:55;5.57;;;4.53;;
32393;SDS011;18853;45.426;9.206;2023-06-14T04:39:21;5.28;;;4.07;;
32393;SDS011;18853;45.426;9.206;2023-06-14T04:41:48;6.15;;;4.72;;
32393;SDS011;18853;45.426;9.206;2023-06-14T04:44:18;6.20;;;4.57;;
32393;SDS011;18853;45.426;9.206;2023-06-14T04:46:45;6.95;;;4.30;;
32393;SDS011;18853;45.426;9.206;2023-06-14T04:49:12;7.03;;;4.63;;
32393;SDS011;18853;45.426;9.206;2023-06-14T04:51:40;5.88;;;4.72;;
32393;SDS011;18853;45.426;9.206;2023-06-14T04:54:08;6.68;;;4.70;;
32393;SDS011;18853;45.426;9.206;2023-06-14T04:56:40;6.13;;;4.53;;
32393;SDS011;18853;45.426;9.206;2023-06-14T04:59:10;6.25;;;4.47;;
32393;SDS011;18853;45.426;9.206;2023-06-14T05:01:40;6.85;;;4.57;;
32393;SDS011;18853;45.426;9.206;2023-06-14T05:04:06;5.95;;;4.90;;
32393;SDS011;18853;45.426;9.206;2023-06-14T05:06:31;6.97;;;4.90;;
32393;SDS011;18853;45.426;9.206;2023-06-14T05:08:57;5.88;;;4.70;;
32393;SDS011;18853;45.426;9.206;2023-06-14T05:11:23;7.28;;;4.53;;
32393;SDS011;18853;45.426;9.206;2023-06-14T05:13:49;8.07;;;4.32;;
32393;SDS011;18853;45.426;9.206;2023-06-14T05:16:16;6.25;;;4.13;;
32393;SDS011;18853;45.426;9.206;2023-06-14T05:18:44;8.57;;;4.50;;
32393;SDS011;18853;45.426;9.206;2023-06-14T05:21:12;5.20;;;4.45;;
32393;SDS011;18853;45.426;9.206;2023-06-14T05:23:38;5.88;;;4.35;;
32393;SDS011;18853;45.426;9.206;2023-06-14T05:26:03;8.25;;;6.30;;
32393;SDS011;18853;45.426;9.206;2023-06-14T05:28:29;11.13;;;7.97;;
32393;SDS011;18853;45.426;9.206;2023-06-14T05:30:56;7.60;;;4.60;;
32393;SDS011;18853;45.426;9.206;2023-06-14T05:33:22;7.32;;;4.88;;
32393;SDS011;18853;45.426;9.206;2023-06-14T05:35:47;4.90;;;3.80;;
32393;SDS011;18853;45.426;9.206;2023-06-14T05:38:13;6.53;;;4.47;;
32393;SDS011;18853;45.426;9.206;2023-06-14T05:40:39;6.63;;;4.03;;
32393;SDS011;18853;45.426;9.206;2023-06-14T05:43:05;6.90;;;3.72;;
32393;SDS011;18853;45.426;9.206;2023-06-14T05:45:30;5.95;;;4.03;;
32393;SDS011;18853;45.426;9.206;2023-06-14T05:47:56;4.70;;;3.85;;
32393;SDS011;18853;45.426;9.206;2023-06-14T05:50:22;6.25;;;4.05;;
32393;SDS011;18853;45.426;9.206;2023-06-14T05:52:47;5.40;;;3.95;;
32393;SDS011;18853;45.426;9.206;2023-06-14T05:55:13;6.20;;;4.47;;
32393;SDS011;18853;45.426;9.206;2023-06-14T05:57:41;5.80;;;4.32;;
32393;SDS011;18853;45.426;9.206;2023-06-14T06:00:07;48.92;;;32.42;;
32393;SDS011;18853;45.426;9.206;2023-06-14T06:02:39;61.13;;;44.30;;
32393;SDS011;18853;45.426;9.206;2023-06-14T06:05:07;52.13;;;36.65;;
32393;SDS011;18853;45.426;9.206;2023-06-14T06:07:33;40.60;;;30.27;;
32393;SDS011;18853;45.426;9.206;2023-06-14T06:09:59;33.08;;;24.35;;
32393;SDS011;18853;45.426;9.206;2023-06-14T06:12:25;25.77;;;18.40;;
32393;SDS011;18853;45.426;9.206;2023-06-14T06:14:51;21.83;;;15.52;;
32393;SDS011;18853;45.426;9.206;2023-06-14T06:17:16;15.70;;;11.52;;
32393;SDS011;18853;45.426;9.206;2023-06-14T06:19:42;14.52;;;10.00;;
32393;SDS011;18853;45.426;9.206;2023-06-14T06:22:08;12.43;;;8.50;;
32393;SDS011;18853;45.426;9.206;2023-06-14T06:24:33;9.68;;;7.10;;
32393;SDS011;18853;45.426;9.206;2023-06-14T06:26:59;8.10;;;5.32;;
32393;SDS011;18853;45.426;9.206;2023-06-14T06:29:26;7.35;;;5.00;;
32393;SDS011;18853;45.426;9.206;2023-06-14T06:31:52;6.20;;;4.43;;
32393;SDS011;18853;45.426;9.206;2023-06-14T06:34:18;7.18;;;4.65;;
32393;SDS011;18853;45.426;9.206;2023-06-14T06:36:43;7.97;;;4.28;;
32393;SDS011;18853;45.426;9.206;2023-06-14T06:39:09;5.53;;;4.13;;
32393;SDS011;18853;45.426;9.206;2023-06-14T06:41:37;6.95;;;4.20;;
32393;SDS011;18853;45.426;9.206;2023-06-14T06:44:04;5.95;;;3.83;;
32393;SDS011;18853;45.426;9.206;2023-06-14T06:46:31;4.93;;;3.78;;
32393;SDS011;18853;45.426;9.206;2023-06-14T06:48:57;7.25;;;4.05;;
32393;SDS011;18853;45.426;9.206;2023-06-14T06:51:23;6.57;;;4.35;;
32393;SDS011;18853;45.426;9.206;2023-06-14T06:53:55;7.10;;;3.80;;
32393;SDS011;18853;45.426;9.206;2023-06-14T06:56:21;6.47;;;3.95;;
32393;SDS011;18853;45.426;9.206;2023-06-14T06:58:51;6.88;;;3.95;;
32393;SDS011;18853;45.426;9.206;2023-06-14T07:01:17;6.53;;;4.30;;
32393;SDS011;18853;45.426;9.206;2023-06-14T07:03:46;6.97;;;4.35;;
32393;SDS011;18853;45.426;9.206;2023-06-14T07:06:11;10.93;;;7.28;;
32393;SDS011;18853;45.426;9.206;2023-06-14T07:08:37;14.75;;;10.13;;
32393;SDS011;18853;45.426;9.206;2023-06-14T07:11:06;15.07;;;11.07;;
32393;SDS011;18853;45.426;9.206;2023-06-14T07:13:32;22.58;;;17.00;;
32393;SDS011;18853;45.426;9.206;2023-06-14T07:15:58;24.00;;;18.95;;
32393;SDS011;18853;45.426;9.206;2023-06-14T07:18:25;23.30;;;17.33;;
32393;SDS011;18853;45.426;9.206;2023-06-14T07:20:52;19.30;;;16.00;;
32393;SDS011;18853;45.426;9.206;2023-06-14T07:23:19;23.13;;;16.45;;
32393;SDS011;18853;45.426;9.206;2023-06-14T07:25:47;18.40;;;14.52;;
32393;SDS011;18853;45.426;9.206;2023-06-14T07:28:13;17.92;;;13.40;;
32393;SDS011;18853;45.426;9.206;2023-06-14T07:30:39;20.70;;;14.45;;
32393;SDS011;18853;45.426;9.206;2023-06-14T07:33:05;17.42;;;11.45;;
32393;SDS011;18853;45.426;9.206;2023-06-14T07:35:30;15.75;;;11.23;;
32393;SDS011;18853;45.426;9.206;2023-06-14T07:37:56;12.85;;;9.63;;
32393;SDS011;18853;45.426;9.206;2023-06-14T07:40:22;14.55;;;9.75;;
32393;SDS011;18853;45.426;9.206;2023-06-14T07:42:48;11.88;;;8.40;;
32393;SDS011;18853;45.426;9.206;2023-06-14T07:45:15;10.50;;;8.68;;
32393;SDS011;18853;45.426;9.206;2023-06-14T07:47:41;11.57;;;7.85;;
32393;SDS011;18853;45.426;9.206;2023-06-14T07:50:07;10.05;;;7.47;;
32393;SDS011;18853;45.426;9.206;2023-06-14T07:52:33;11.25;;;7.60;;
32393;SDS011;18853;45.426;9.206;2023-06-14T07:54:59;11.68;;;6.90;;
32393;SDS011;18853;45.426;9.206;2023-06-14T07:57:25;9.45;;;6.90;;
32393;SDS011;18853;45.426;9.206;2023-06-14T07:59:51;12.98;;;6.78;;
32393;SDS011;18853;45.426;9.206;2023-06-14T08:02:17;9.18;;;6.60;;
32393;SDS011;18853;45.426;9.206;2023-06-14T08:04:43;11.20;;;6.57;;
32393;SDS011;18853;45.426;9.206;2023-06-14T08:07:09;8.57;;;5.90;;
32393;SDS011;18853;45.426;9.206;2023-06-14T08:09:35;9.27;;;6.35;;
32393;SDS011;18853;45.426;9.206;2023-06-14T08:12:03;7.63;;;5.63;;
32393;SDS011;18853;45.426;9.206;2023-06-14T08:14:35;9.05;;;5.95;;
32393;SDS011;18853;45.426;9.206;2023-06-14T08:17:01;10.60;;;6.97;;
32393;SDS011;18853;45.426;9.206;2023-06-14T08:19:26;12.45;;;6.75;;
32393;SDS011;18853;45.426;9.206;2023-06-14T08:21:53;10.95;;;5.97;;
32393;SDS011;18853;45.426;9.206;2023-06-14T08:24:22;7.68;;;5.45;;
32393;SDS011;18853;45.426;9.206;2023-06-14T08:26:54;10.43;;;6.22;;
32393;SDS011;18853;45.426;9.206;2023-06-14T08:29:21;9.90;;;5.90;;
32393;SDS011;18853;45.426;9.206;2023-06-14T08:31:47;6.80;;;5.43;;
32393;SDS011;18853;45.426;9.206;2023-06-14T08:34:13;8.65;;;5.70;;
32393;SDS011;18853;45.426;9.206;2023-06-14T08:36:39;11.55;;;5.50;;
32393;SDS011;18853;45.426;9.206;2023-06-14T08:39:04;9.75;;;5.95;;
32393;SDS011;18853;45.426;9.206;2023-06-14T08:41:30;9.30;;;5.50;;
32393;SDS011;18853;45.426;9.206;2023-06-14T08:43:57;8.18;;;5.63;;
32393;SDS011;18853;45.426;9.206;2023-06-14T08:46:25;10.10;;;6.18;;
32393;SDS011;18853;45.426;9.206;2023-06-14T08:48:52;11.32;;;6.22;;
32393;SDS011;18853;45.426;9.206;2023-06-14T08:51:23;9.55;;;6.22;;
32393;SDS011;18853;45.426;9.206;2023-06-14T08:53:52;8.20;;;6.18;;
32393;SDS011;18853;45.426;9.206;2023-06-14T08:56:28;9.00;;;6.45;;
32393;SDS011;18853;45.426;9.206;2023-06-14T08:58:55;11.35;;;6.22;;
32393;SDS011;18853;45.426;9.206;2023-06-14T09:01:23;10.90;;;7.15;;
32393;SDS011;18853;45.426;9.206;2023-06-14T09:03:49;21.60;;;16.15;;
32393;SDS011;18853;45.426;9.206;2023-06-14T09:06:16;30.73;;;23.33;;
32393;SDS011;18853;45.426;9.206;2023-06-14T09:08:43;33.97;;;25.90;;
32393;SDS011;18853;45.426;9.206;2023-06-14T09:11:12;40.40;;;31.58;;
32393;SDS011;18853;45.426;9.206;2023-06-14T09:13:39;36.47;;;28.20;;
32393;SDS011;18853;45.426;9.206;2023-06-14T09:16:06;37.13;;;29.00;;
32393;SDS011;18853;45.426;9.206;2023-06-14T09:21:06;30.95;;;21.83;;
32393;SDS011;18853;45.426;9.206;2023-06-14T09:23:39;31.17;;;24.73;;
32393;SDS011;18853;45.426;9.206;2023-06-14T09:26:06;24.02;;;17.70;;
32393;SDS011;18853;45.426;9.206;2023-06-14T09:28:36;24.70;;;18.40;;
32393;SDS011;18853;45.426;9.206;2023-06-14T09:31:07;24.73;;;19.35;;
32393;SDS011;18853;45.426;9.206;2023-06-14T09:33:34;26.52;;;17.77;;
32393;SDS011;18853;45.426;9.206;2023-06-14T09:36:00;15.73;;;12.02;;
32393;SDS011;18853;45.426;9.206;2023-06-14T09:38:26;18.92;;;15.13;;
32393;SDS011;18853;45.426;9.206;2023-06-14T09:40:52;17.60;;;12.55;;
32393;SDS011;18853;45.426;9.206;2023-06-14T09:43:17;17.33;;;13.63;;
32393;SDS011;18853;45.426;9.206;2023-06-14T09:45:44;16.33;;;11.68;;
32393;SDS011;18853;45.426;9.206;2023-06-14T09:48:13;16.20;;;11.57;;
32393;SDS011;18853;45.426;9.206;2023-06-14T09:50:44;17.80;;;12.07;;
32393;SDS011;18853;45.426;9.206;2023-06-14T09:53:11;13.90;;;10.75;;
32393;SDS011;18853;45.426;9.206;2023-06-14T09:55:39;14.18;;;10.65;;
32393;SDS011;18853;45.426;9.206;2023-06-14T09:58:07;18.10;;;9.93;;
32393;SDS011;18853;45.426;9.206;2023-06-14T10:00:35;12.95;;;9.35;;
32393;SDS011;18853;45.426;9.206;2023-06-14T10:03:12;11.77;;;8.73;;
32393;SDS011;18853;45.426;9.206;2023-06-14T10:05:39;13.52;;;9.85;;
32393;SDS011;18853;45.426;9.206;2023-06-14T10:08:09;14.23;;;8.85;;
32393;SDS011;18853;45.426;9.206;2023-06-14T10:10:38;13.05;;;9.02;;
32393;SDS011;18853;45.426;9.206;2023-06-14T10:13:06;13.57;;;8.88;;
32393;SDS011;18853;45.426;9.206;2023-06-14T10:15:41;11.05;;;8.00;;
32393;SDS011;18853;45.426;9.206;2023-06-14T10:21:56;17.27;;;9.98;;
32393;SDS011;18853;45.426;9.206;2023-06-14T10:24:44;10.60;;;7.63;;
32393;SDS011;18853;45.426;9.206;2023-06-14T10:27:13;10.43;;;7.47;;
32393;SDS011;18853;45.426;9.206;2023-06-14T10:32:23;8.27;;;6.55;;
32393;SDS011;18853;45.426;9.206;2023-06-14T10:34:56;9.60;;;7.10;;
32393;SDS011;18853;45.426;9.206;2023-06-14T10:37:24;8.23;;;6.88;;
32393;SDS011;18853;45.426;9.206;2023-06-14T10:39:50;10.02;;;7.38;;
32393;SDS011;18853;45.426;9.206;2023-06-14T10:42:16;10.25;;;6.32;;
32393;SDS011;18853;45.426;9.206;2023-06-14T10:44:51;11.25;;;7.13;;
32393;SDS011;18853;45.426;9.206;2023-06-14T10:49:50;8.82;;;6.45;;
32393;SDS011;18853;45.426;9.206;2023-06-14T10:52:20;10.85;;;8.57;;
32393;SDS011;18853;45.426;9.206;2023-06-14T10:55:00;10.48;;;7.85;;
32393;SDS011;18853;45.426;9.206;2023-06-14T10:57:38;9.55;;;7.47;;
32393;SDS011;18853;45.426;9.206;2023-06-14T11:00:05;11.32;;;9.48;;
32393;SDS011;18853;45.426;9.206;2023-06-14T11:05:28;12.50;;;10.63;;
32393;SDS011;18853;45.426;9.206;2023-06-14T11:13:02;16.45;;;13.15;;
32393;SDS011;18853;45.426;9.206;2023-06-14T11:15:29;24.67;;;18.55;;
32393;SDS011;18853;45.426;9.206;2023-06-14T11:17:56;22.88;;;20.00;;
32393;SDS011;18853;45.426;9.206;2023-06-14T11:20:26;20.08;;;17.10;;
32393;SDS011;18853;45.426;9.206;2023-06-14T11:22:52;28.75;;;24.35;;
32393;SDS011;18853;45.426;9.206;2023-06-14T11:25:19;17.48;;;15.30;;
32393;SDS011;18853;45.426;9.206;2023-06-14T11:27:45;18.15;;;15.23;;
32393;SDS011;18853;45.426;9.206;2023-06-14T11:30:11;23.02;;;19.48;;
32393;SDS011;18853;45.426;9.206;2023-06-14T11:32:38;12.50;;;10.90;;
32393;SDS011;18853;45.426;9.206;2023-06-14T11:35:05;11.18;;;9.70;;
32393;SDS011;18853;45.426;9.206;2023-06-14T11:37:31;11.07;;;9.63;;
32393;SDS011;18853;45.426;9.206;2023-06-14T11:40:00;11.85;;;10.35;;
32393;SDS011;18853;45.426;9.206;2023-06-14T11:42:28;25.60;;;21.17;;
32393;SDS011;18853;45.426;9.206;2023-06-14T11:44:55;22.52;;;18.75;;
32393;SDS011;18853;45.426;9.206;2023-06-14T11:47:21;18.17;;;15.05;;
32393;SDS011;18853;45.426;9.206;2023-06-14T11:49:47;11.43;;;9.13;;
32393;SDS011;18853;45.426;9.206;2023-06-14T11:52:13;21.83;;;15.13;;
32393;SDS011;18853;45.426;9.206;2023-06-14T11:54:40;10.50;;;9.27;;
32393;SDS011;18853;45.426;9.206;2023-06-14T11:57:09;12.90;;;10.18;;
32393;SDS011;18853;45.426;9.206;2023-06-14T11:59:39;12.98;;;9.95;;
32393;SDS011;18853;45.426;9.206;2023-06-14T12:02:05;10.85;;;9.57;;
32393;SDS011;18853;45.426;9.206;2023-06-14T12:04:32;12.18;;;9.98;;
32393;SDS011;18853;45.426;9.206;2023-06-14T12:07:14;10.65;;;9.00;;
32393;SDS011;18853;45.426;9.206;2023-06-14T12:09:42;11.75;;;9.85;;
32393;SDS011;18853;45.426;9.206;2023-06-14T12:12:28;15.88;;;9.05;;
32393;SDS011;18853;45.426;9.206;2023-06-14T12:14:56;10.68;;;8.18;;
32393;SDS011;18853;45.426;9.206;2023-06-14T12:17:22;8.40;;;7.28;;
32393;SDS011;18853;45.426;9.206;2023-06-14T12:19:48;11.63;;;10.32;;
32393;SDS011;18853;45.426;9.206;2023-06-14T12:22:15;10.75;;;8.20;;
32393;SDS011;18853;45.426;9.206;2023-06-14T12:24:45;14.63;;;9.15;;
32393;SDS011;18853;45.426;9.206;2023-06-14T12:27:11;9.05;;;7.85;;
32393;SDS011;18853;45.426;9.206;2023-06-14T12:29:40;11.32;;;8.65;;
32393;SDS011;18853;45.426;9.206;2023-06-14T12:32:08;9.63;;;7.20;;
32393;SDS011;18853;45.426;9.206;2023-06-14T12:34:34;9.45;;;7.88;;
32393;SDS011;18853;45.426;9.206;2023-06-14T12:37:00;10.48;;;8.30;;
32393;SDS011;18853;45.426;9.206;2023-06-14T12:39:27;12.52;;;10.73;;
32393;SDS011;18853;45.426;9.206;2023-06-14T12:41:53;13.35;;;10.52;;
32393;SDS011;18853;45.426;9.206;2023-06-14T12:44:19;12.43;;;10.45;;
32393;SDS011;18853;45.426;9.206;2023-06-14T12:46:45;12.07;;;9.93;;
32393;SDS011;18853;45.426;9.206;2023-06-14T12:49:12;15.77;;;9.45;;
32393;SDS011;18853;45.426;9.206;2023-06-14T12:51:38;12.00;;;10.63;;
32393;SDS011;18853;45.426;9.206;2023-06-14T12:54:05;12.15;;;10.85;;
32393;SDS011;18853;45.426;9.206;2023-06-14T12:56:31;9.88;;;8.13;;
32393;SDS011;18853;45.426;9.206;2023-06-14T12:58:57;9.82;;;8.52;;
32393;SDS011;18853;45.426;9.206;2023-06-14T13:01:24;12.48;;;9.48;;
32393;SDS011;18853;45.426;9.206;2023-06-14T13:03:49;9.52;;;8.10;;
32393;SDS011;18853;45.426;9.206;2023-06-14T13:06:16;11.43;;;8.38;;
32393;SDS011;18853;45.426;9.206;2023-06-14T13:08:42;10.20;;;9.07;;
32393;SDS011;18853;45.426;9.206;2023-06-14T13:11:08;13.13;;;9.13;;
32393;SDS011;18853;45.426;9.206;2023-06-14T13:13:34;11.88;;;10.38;;
32393;SDS011;18853;45.426;9.206;2023-06-14T13:16:00;10.43;;;8.27;;
32393;SDS011;18853;45.426;9.206;2023-06-14T13:18:26;12.18;;;9.15;;
32393;SDS011;18853;45.426;9.206;2023-06-14T13:20:51;10.32;;;7.78;;
32393;SDS011;18853;45.426;9.206;2023-06-14T13:23:17;11.77;;;9.55;;
32393;SDS011;18853;45.426;9.206;2023-06-14T13:25:43;7.57;;;6.78;;
32393;SDS011;18853;45.426;9.206;2023-06-14T13:28:09;9.77;;;7.43;;
32393;SDS011;18853;45.426;9.206;2023-06-14T13:30:34;7.47;;;5.90;;
32393;SDS011;18853;45.426;9.206;2023-06-14T13:33:00;11.35;;;7.90;;
32393;SDS011;18853;45.426;9.206;2023-06-14T13:35:26;8.32;;;6.07;;
32393;SDS011;18853;45.426;9.206;2023-06-14T13:37:52;8.88;;;7.93;;
32393;SDS011;18853;45.426;9.206;2023-06-14T13:40:18;13.32;;;9.93;;
32393;SDS011;18853;45.426;9.206;2023-06-14T13:42:44;9.70;;;8.32;;
32393;SDS011;18853;45.426;9.206;2023-06-14T13:45:11;14.57;;;9.05;;
32393;SDS011;18853;45.426;9.206;2023-06-14T13:47:38;10.73;;;8.18;;
32393;SDS011;18853;45.426;9.206;2023-06-14T13:50:04;9.43;;;7.18;;
32393;SDS011;18853;45.426;9.206;2023-06-14T13:52:31;9.23;;;6.45;;
32393;SDS011;18853;45.426;9.206;2023-06-14T13:54:56;9.20;;;6.93;;
32393;SDS011;18853;45.426;9.206;2023-06-14T13:57:22;8.63;;;6.13;;
32393;SDS011;18853;45.426;9.206;2023-06-14T13:59:48;11.45;;;9.10;;
32393;SDS011;18853;45.426;9.206;2023-06-14T14:02:13;13.50;;;10.07;;
32393;SDS011;18853;45.426;9.206;2023-06-14T14:04:40;11.43;;;9.98;;
32393;SDS011;18853;45.426;9.206;2023-06-14T14:07:06;11.18;;;10.05;;
32393;SDS011;18853;45.426;9.206;2023-06-14T14:09:32;9.25;;;7.68;;
32393;SDS011;18853;45.426;9.206;2023-06-14T14:11:59;12.45;;;10.02;;
32393;SDS011;18853;45.426;9.206;2023-06-14T14:14:27;11.52;;;9.98;;
32393;SDS011;18853;45.426;9.206;2023-06-14T14:16:53;12.07;;;9.38;;
32393;SDS011;18853;45.426;9.206;2023-06-14T14:19:19;7.70;;;6.68;;
32393;SDS011;18853;45.426;9.206;2023-06-14T14:21:48;9.57;;;8.57;;
32393;SDS011;18853;45.426;9.206;2023-06-14T14:24:14;11.48;;;9.60;;
32393;SDS011;18853;45.426;9.206;2023-06-14T14:26:41;10.18;;;8.90;;
32393;SDS011;18853;45.426;9.206;2023-06-14T14:29:07;10.55;;;8.70;;
32393;SDS011;18853;45.426;9.206;2023-06-14T14:31:33;11.40;;;8.98;;
32393;SDS011;18853;45.426;9.206;2023-06-14T14:33:59;7.95;;;6.55;;
32393;SDS011;18853;45.426;9.206;2023-06-14T14:36:25;12.10;;;6.50;;
32393;SDS011;18853;45.426;9.206;2023-06-14T14:38:50;10.23;;;6.18;;
32393;SDS011;18853;45.426;9.206;2023-06-14T14:41:19;8.10;;;6.97;;
32393;SDS011;18853;45.426;9.206;2023-06-14T14:43:45;10.60;;;7.22;;
32393;SDS011;18853;45.426;9.206;2023-06-14T14:46:11;9.32;;;7.07;;
32393;SDS011;18853;45.426;9.206;2023-06-14T14:48:36;9.90;;;8.88;;
32393;SDS011;18853;45.426;9.206;2023-06-14T14:51:02;9.85;;;6.35;;
32393;SDS011;18853;45.426;9.206;2023-06-14T14:53:28;8.85;;;7.22;;
32393;SDS011;18853;45.426;9.206;2023-06-14T14:55:54;8.95;;;6.55;;
32393;SDS011;18853;45.426;9.206;2023-06-14T14:58:20;8.57;;;7.68;;